Rothschild, WI (54474)

4:22 AM CST on February 11, 2016 (GMT -0600)
Eau Claire river - Weston | | Change Station
CLOSE
Current Station
Personal Weather Station
Location: Weston, WI
Elevation: 1201 ft
Nearby Weather Stations

Elev 1201 ft 44.92 °N, 89.56 °W | Updated 28 seconds ago

Clear
Clear
-4.5 °F
Feels Like -5 °F
N
0.0
Wind Variable Wind from South
Gusts 0.0 mph

Today
High -- | Low -- °F
--% Chance of Precip.
Yesterday
High -- | Low -- °F
Precip. -- in
Pressure 30.28 in
Visibility -9999.0 miles
Clouds Clear
Windchill -5 °F
Dew Point -17 °F
Humidity 54%
Rainfall 0.00 in
Snow Depth Not available.
7:05 AM 5:20 PM
Waxing Crescent, 11% visible
METAR KAUW 110954Z AUTO 34003KT CLR M18/M21 A3018 RMK AO2 SLP253 T11781211 $
Pressure 30.28 in
Visibility -9999.0 miles
Clouds Clear
Windchill -5 °F
Dew Point -17 °F
Humidity 54%
Rainfall 0.00 in
Snow Depth Not available.
7:05 AM 5:20 PM
Waxing Crescent, 11% visible
METAR KAUW 110954Z AUTO 34003KT CLR M18/M21 A3018 RMK AO2 SLP253 T11781211 $

10-Day Weather Forecast

Almanac

Astronomy

Feb. 11, 2016 Rise Set
Actual Time
Civil Twilight
Nautical Twilight
Astronomical Twilight
Moon
Length of Visible Light
Length of Day
Tomorrow will be .
, % of the Moon is Illuminated

Today's Extremes

State Highs State Lows

Community

WunderPhotos

Upload Photos

1,892,030 photos uploaded!

WunderBlog® & News

Nearby

Air Quality

  Air Quality AQ Index Pollutant
Not available.

Snow Depth

Station Depth Elevation

Earthquake Activity

City Distance Mag. Time & Date
Minimum magnitude displayed is 2.5.

Coastal Water Temperatures

Place Temperature

Stations

Nearby Weather Stations

Station Location Temp. Windchill Dew Point Humidity Wind Precip. Elev Updated Type
                   

Watches & Warnings

There are currently no watches in effect.